Weather at Jerusalem International Airport [CLOSED]

Public forecast

Using degrees Celsius for public forecast. Weather courtesy of forecast.io.

Closest aviation weather report (METAR) to Jerusalem International Airport

Closest report is Ben Gurion International Airport, 19.0 nm (35.2 km) WNW.

2024/02/24 01:20 (retrieved 37 minutes ago)

LLBG 240120Z 13010KT 9000 NSC 15/12 Q1018 TEMPO 5000 BR NSC RMK BKN080

Closest aviation forecast (TAF) to Jerusalem International Airport

Forecast is more than 12 hours old.

Closest forecast is Damascus International Airport, 113.6 nm (210.4 km) NE.

2024/02/22 18:33 (retrieved 1 day ago)

TAF OSDI 221800Z 2218/2324 22010KT 8000 FEW030 TEMPO 2309/2318 22010G25KT 8000 FEW030